APZ706 RKSS-RKTN
Flight info
| Callsign | APZ706 |
|---|---|
| Flight time | 0h 40m |
| Altitude | 21000 |
| Route | OSPOT2T OSPOT Y782 BITUX UKBAT1 |
| Aircraft | B738/M-SDE2E3FGHIRWXY/LB1 |
Departure
| Time | 2026-05-03 23:42 |
|---|---|
| Airport | Gimpo International Airport (RKSS) |
Arrival
| Time | 2026-05-04 00:23 |
|---|---|
| Airport | Daegu International Airport (RKTN) |
| Time | Latitude | Longitude | Altitude | Speed | Heading |
|---|---|---|---|---|---|
| 2026-05-03 23:22 | 37.55762 | 126.80333 | 66 ft | 0 kts | 45° |
| 2026-05-03 23:33 | 37.55751 | 126.80319 | 60 ft | 4 kts | 45° |
| 2026-05-03 23:33 | 37.55736 | 126.80300 | 62 ft | 3 kts | 45° |
| 2026-05-03 23:33 | 37.55717 | 126.80276 | 58 ft | 4 kts | 49° |
| 2026-05-03 23:34 | 37.55701 | 126.80249 | 57 ft | 4 kts | 60° |
| 2026-05-03 23:34 | 37.55693 | 126.80221 | 60 ft | 4 kts | 108° |
| 2026-05-03 23:34 | 37.55707 | 126.80198 | 58 ft | 4 kts | 135° |
| 2026-05-03 23:34 | 37.55714 | 126.80189 | 61 ft | 0 kts | 135° |
| 2026-05-03 23:38 | 37.55710 | 126.80195 | 60 ft | 5 kts | 135° |
| 2026-05-03 23:39 | 37.55656 | 126.80263 | 62 ft | 15 kts | 135° |
| 2026-05-03 23:39 | 37.55567 | 126.80303 | 64 ft | 15 kts | 224° |
| 2026-05-03 23:39 | 37.55493 | 126.80208 | 62 ft | 15 kts | 225° |
| 2026-05-03 23:39 | 37.55410 | 126.80211 | 57 ft | 14 kts | 135° |
| 2026-05-03 23:40 | 37.55341 | 126.80297 | 63 ft | 14 kts | 135° |
| 2026-05-03 23:40 | 37.55272 | 126.80384 | 62 ft | 17 kts | 135° |
| 2026-05-03 23:40 | 37.55177 | 126.80504 | 64 ft | 20 kts | 135° |
| 2026-05-03 23:40 | 37.55081 | 126.80624 | 65 ft | 19 kts | 135° |
| 2026-05-03 23:41 | 37.54988 | 126.80739 | 66 ft | 18 kts | 135° |
| 2026-05-03 23:41 | 37.54890 | 126.80825 | 63 ft | 18 kts | 189° |
| 2026-05-03 23:41 | 37.54808 | 126.80717 | 66 ft | 17 kts | 256° |
| 2026-05-03 23:41 | 37.54868 | 126.80598 | 67 ft | 17 kts | 316° |
| 2026-05-03 23:42 | 37.55073 | 126.80339 | 61 ft | 79 kts | 315° |
| 2026-05-03 23:42 | 37.55634 | 126.79635 | 65 ft | 145 kts | 313° |
| 2026-05-03 23:42 | 37.56397 | 126.78629 | 525 ft | 167 kts | 313° |
| 2026-05-03 23:42 | 37.57223 | 126.77572 | 1469 ft | 166 kts | 314° |
| 2026-05-03 23:43 | 37.58008 | 126.76539 | 2490 ft | 165 kts | 315° |
| 2026-05-03 23:43 | 37.58428 | 126.75981 | 3084 ft | 158 kts | 314° |
| 2026-05-03 23:43 | 37.58900 | 126.75347 | 3584 ft | 168 kts | 314° |
| 2026-05-03 23:44 | 37.59113 | 126.75060 | 3691 ft | 175 kts | 314° |
| 2026-05-03 23:44 | 37.59804 | 126.74130 | 3851 ft | 198 kts | 314° |
| 2026-05-03 23:44 | 37.60796 | 126.72790 | 4160 ft | 221 kts | 314° |
| 2026-05-03 23:44 | 37.61637 | 126.71076 | 4717 ft | 239 kts | 292° |
| 2026-05-03 23:45 | 37.61883 | 126.68970 | 5664 ft | 248 kts | 271° |
| 2026-05-03 23:45 | 37.61657 | 126.67478 | 6372 ft | 256 kts | 256° |
| 2026-05-03 23:45 | 37.61212 | 126.66321 | 6874 ft | 265 kts | 242° |
| 2026-05-03 23:45 | 37.59995 | 126.64508 | 7781 ft | 273 kts | 233° |
| 2026-05-03 23:46 | 37.58694 | 126.62765 | 8735 ft | 274 kts | 233° |
| 2026-05-03 23:46 | 37.58438 | 126.62422 | 8920 ft | 275 kts | 233° |
| 2026-05-03 23:46 | 37.57109 | 126.60658 | 9818 ft | 280 kts | 230° |
| 2026-05-03 23:46 | 37.56051 | 126.59691 | 10317 ft | 294 kts | 213° |
| 2026-05-03 23:47 | 37.55512 | 126.59381 | 10480 ft | 303 kts | 206° |
| 2026-05-03 23:47 | 37.53334 | 126.58833 | 10713 ft | 335 kts | 191° |
| 2026-05-03 23:47 | 37.50946 | 126.58542 | 10915 ft | 361 kts | 189° |
| 2026-05-03 23:47 | 37.48366 | 126.58260 | 11216 ft | 379 kts | 189° |
| 2026-05-03 23:48 | 37.45705 | 126.57942 | 11852 ft | 387 kts | 190° |
| 2026-05-03 23:48 | 37.43005 | 126.57592 | 12632 ft | 390 kts | 191° |
| 2026-05-03 23:48 | 37.40315 | 126.57330 | 13383 ft | 398 kts | 182° |
| 2026-05-03 23:48 | 37.37536 | 126.57914 | 14061 ft | 409 kts | 169° |
| 2026-05-03 23:49 | 37.34761 | 126.58785 | 14732 ft | 414 kts | 166° |
| 2026-05-03 23:49 | 37.32130 | 126.60363 | 15334 ft | 424 kts | 146° |
| 2026-05-03 23:49 | 37.29980 | 126.62920 | 16014 ft | 427 kts | 129° |
| 2026-05-03 23:49 | 37.28112 | 126.65835 | 16698 ft | 431 kts | 127° |
| 2026-05-03 23:50 | 37.26272 | 126.68785 | 17312 ft | 436 kts | 127° |
| 2026-05-03 23:50 | 37.25009 | 126.70821 | 17744 ft | 438 kts | 127° |
| 2026-05-03 23:50 | 37.23145 | 126.73811 | 18344 ft | 442 kts | 127° |
| 2026-05-03 23:50 | 37.21221 | 126.76870 | 18890 ft | 446 kts | 127° |
| 2026-05-03 23:51 | 37.19283 | 126.79926 | 19439 ft | 449 kts | 127° |
| 2026-05-03 23:51 | 37.17317 | 126.83007 | 19961 ft | 453 kts | 128° |
| 2026-05-03 23:51 | 37.14696 | 126.87095 | 20775 ft | 453 kts | 128° |
| 2026-05-03 23:51 | 37.13385 | 126.89136 | 20919 ft | 454 kts | 128° |
| 2026-05-03 23:52 | 37.11368 | 126.92275 | 20934 ft | 466 kts | 128° |
| 2026-05-03 23:52 | 37.09307 | 126.95481 | 20941 ft | 477 kts | 128° |
| 2026-05-03 23:52 | 37.06518 | 126.99812 | 20932 ft | 483 kts | 128° |
| 2026-05-03 23:52 | 37.05093 | 127.02022 | 20925 ft | 480 kts | 128° |
| 2026-05-03 23:53 | 37.03028 | 127.05223 | 20920 ft | 477 kts | 128° |
| 2026-05-03 23:53 | 37.00946 | 127.08448 | 20895 ft | 475 kts | 128° |
| 2026-05-03 23:53 | 36.98867 | 127.11665 | 20899 ft | 474 kts | 129° |
| 2026-05-03 23:53 | 36.96790 | 127.14877 | 20898 ft | 475 kts | 129° |
| 2026-05-03 23:54 | 36.94710 | 127.18090 | 20903 ft | 475 kts | 129° |
| 2026-05-03 23:54 | 36.92625 | 127.21309 | 20907 ft | 476 kts | 129° |
| 2026-05-03 23:54 | 36.90531 | 127.24538 | 20913 ft | 477 kts | 129° |
| 2026-05-03 23:54 | 36.88457 | 127.27734 | 20922 ft | 478 kts | 129° |
| 2026-05-03 23:55 | 36.86360 | 127.30962 | 20936 ft | 479 kts | 129° |
| 2026-05-03 23:55 | 36.84257 | 127.34195 | 20933 ft | 479 kts | 130° |
| 2026-05-03 23:55 | 36.82054 | 127.37329 | 20929 ft | 478 kts | 135° |
| 2026-05-03 23:55 | 36.80492 | 127.39268 | 20940 ft | 478 kts | 137° |
| 2026-05-03 23:56 | 36.79441 | 127.40514 | 20938 ft | 478 kts | 138° |
| 2026-05-03 23:56 | 36.77005 | 127.43341 | 20930 ft | 478 kts | 139° |
| 2026-05-03 23:56 | 36.74616 | 127.46161 | 20934 ft | 478 kts | 138° |
| 2026-05-03 23:56 | 36.72225 | 127.49060 | 20935 ft | 478 kts | 137° |
| 2026-05-03 23:57 | 36.69853 | 127.51972 | 20937 ft | 477 kts | 137° |
| 2026-05-03 23:57 | 36.67489 | 127.54872 | 20943 ft | 477 kts | 137° |
| 2026-05-03 23:57 | 36.65117 | 127.57775 | 20936 ft | 477 kts | 138° |
| 2026-05-03 23:57 | 36.62754 | 127.60662 | 20933 ft | 470 kts | 138° |
| 2026-05-03 23:58 | 36.60468 | 127.63457 | 20835 ft | 453 kts | 138° |
| 2026-05-03 23:58 | 36.58254 | 127.66159 | 20726 ft | 437 kts | 138° |
| 2026-05-03 23:58 | 36.56144 | 127.68731 | 20630 ft | 423 kts | 139° |
| 2026-05-03 23:58 | 36.54068 | 127.71258 | 20430 ft | 412 kts | 139° |
| 2026-05-03 23:59 | 36.52025 | 127.73738 | 20024 ft | 409 kts | 139° |
| 2026-05-03 23:59 | 36.49986 | 127.76212 | 19571 ft | 407 kts | 139° |
| 2026-05-03 23:59 | 36.47960 | 127.78671 | 19158 ft | 405 kts | 139° |
| 2026-05-03 23:59 | 36.45980 | 127.81073 | 18790 ft | 401 kts | 139° |
| 2026-05-04 00:00 | 36.43992 | 127.83485 | 18398 ft | 398 kts | 138° |
| 2026-05-04 00:00 | 36.42012 | 127.85892 | 17945 ft | 396 kts | 138° |
| 2026-05-04 00:00 | 36.40046 | 127.88283 | 17470 ft | 394 kts | 138° |
| 2026-05-04 00:00 | 36.38093 | 127.90657 | 17036 ft | 391 kts | 138° |
| 2026-05-04 00:01 | 36.36144 | 127.93024 | 16578 ft | 389 kts | 138° |
| 2026-05-04 00:01 | 36.34209 | 127.95373 | 16128 ft | 387 kts | 138° |
| 2026-05-04 00:01 | 36.32308 | 127.97676 | 15684 ft | 386 kts | 138° |
| 2026-05-04 00:01 | 36.30389 | 127.99993 | 15250 ft | 383 kts | 140° |
| 2026-05-04 00:02 | 36.28247 | 128.01916 | 14805 ft | 377 kts | 156° |
| 2026-05-04 00:02 | 36.25844 | 128.03097 | 14414 ft | 367 kts | 171° |
| 2026-05-04 00:02 | 36.23348 | 128.03561 | 14021 ft | 359 kts | 181° |
| 2026-05-04 00:02 | 36.20887 | 128.03781 | 13609 ft | 358 kts | 182° |
| 2026-05-04 00:03 | 36.18404 | 128.03982 | 13163 ft | 357 kts | 181° |
| 2026-05-04 00:03 | 36.15924 | 128.04192 | 12720 ft | 356 kts | 182° |
| 2026-05-04 00:03 | 36.13455 | 128.04414 | 12289 ft | 354 kts | 181° |
| 2026-05-04 00:03 | 36.10997 | 128.04646 | 11880 ft | 353 kts | 181° |
| 2026-05-04 00:04 | 36.08550 | 128.04881 | 11449 ft | 351 kts | 181° |
| 2026-05-04 00:04 | 36.06157 | 128.05115 | 11046 ft | 345 kts | 181° |
| 2026-05-04 00:04 | 36.03814 | 128.05348 | 10992 ft | 332 kts | 181° |
| 2026-05-04 00:04 | 36.01572 | 128.05965 | 10868 ft | 332 kts | 159° |
| 2026-05-04 00:05 | 35.99713 | 128.07601 | 10804 ft | 327 kts | 134° |
| 2026-05-04 00:05 | 35.98461 | 128.09894 | 10708 ft | 318 kts | 114° |
| 2026-05-04 00:05 | 35.97555 | 128.12348 | 10651 ft | 309 kts | 111° |
| 2026-05-04 00:05 | 35.96724 | 128.14743 | 10437 ft | 307 kts | 111° |
| 2026-05-04 00:06 | 35.95893 | 128.17166 | 10129 ft | 306 kts | 111° |
| 2026-05-04 00:06 | 35.95058 | 128.19582 | 9841 ft | 305 kts | 111° |
| 2026-05-04 00:06 | 35.94230 | 128.21955 | 9567 ft | 304 kts | 111° |
| 2026-05-04 00:06 | 35.93388 | 128.24352 | 9284 ft | 303 kts | 111° |
| 2026-05-04 00:07 | 35.92547 | 128.26734 | 9038 ft | 302 kts | 111° |
| 2026-05-04 00:07 | 35.91707 | 128.29101 | 8995 ft | 300 kts | 111° |
| 2026-05-04 00:07 | 35.90875 | 128.31442 | 9006 ft | 302 kts | 110° |
| 2026-05-04 00:07 | 35.90026 | 128.33825 | 8979 ft | 302 kts | 111° |
| 2026-05-04 00:08 | 35.89182 | 128.36193 | 8983 ft | 302 kts | 111° |
| 2026-05-04 00:08 | 35.88337 | 128.38561 | 8988 ft | 302 kts | 111° |
| 2026-05-04 00:08 | 35.87490 | 128.40932 | 8984 ft | 302 kts | 111° |
| 2026-05-04 00:08 | 35.86641 | 128.43304 | 8982 ft | 302 kts | 111° |
| 2026-05-04 00:09 | 35.85803 | 128.45643 | 8982 ft | 302 kts | 111° |
| 2026-05-04 00:09 | 35.84952 | 128.48019 | 8982 ft | 302 kts | 111° |
| 2026-05-04 00:09 | 35.84099 | 128.50399 | 9001 ft | 302 kts | 111° |
| 2026-05-04 00:09 | 35.83251 | 128.52762 | 8992 ft | 301 kts | 111° |
| 2026-05-04 00:10 | 35.82412 | 128.55099 | 9007 ft | 302 kts | 111° |
| 2026-05-04 00:10 | 35.81752 | 128.57543 | 8991 ft | 298 kts | 90° |
| 2026-05-04 00:10 | 35.81939 | 128.59993 | 9020 ft | 281 kts | 64° |
| 2026-05-04 00:10 | 35.82795 | 128.62071 | 8912 ft | 266 kts | 44° |
| 2026-05-04 00:11 | 35.83898 | 128.63875 | 8681 ft | 263 kts | 43° |
| 2026-05-04 00:11 | 35.84932 | 128.65513 | 8425 ft | 263 kts | 42° |
| 2026-05-04 00:11 | 35.86099 | 128.67359 | 8128 ft | 264 kts | 42° |
| 2026-05-04 00:11 | 35.87221 | 128.69146 | 7878 ft | 263 kts | 42° |
| 2026-05-04 00:12 | 35.88336 | 128.70934 | 7617 ft | 262 kts | 43° |
| 2026-05-04 00:12 | 35.89443 | 128.72716 | 7407 ft | 261 kts | 43° |
| 2026-05-04 00:12 | 35.90546 | 128.74496 | 7176 ft | 260 kts | 43° |
| 2026-05-04 00:12 | 35.91639 | 128.76263 | 6980 ft | 258 kts | 43° |
| 2026-05-04 00:13 | 35.92651 | 128.78071 | 6743 ft | 267 kts | 57° |
| 2026-05-04 00:13 | 35.93040 | 128.80377 | 6457 ft | 280 kts | 79° |
| 2026-05-04 00:13 | 35.93157 | 128.82791 | 6121 ft | 282 kts | 79° |
| 2026-05-04 00:13 | 35.93253 | 128.85205 | 6021 ft | 281 kts | 79° |
| 2026-05-04 00:14 | 35.93360 | 128.87625 | 6007 ft | 282 kts | 79° |
| 2026-05-04 00:14 | 35.93470 | 128.90010 | 5991 ft | 282 kts | 80° |
| 2026-05-04 00:14 | 35.93142 | 128.92427 | 5984 ft | 294 kts | 111° |
| 2026-05-04 00:14 | 35.91847 | 128.94374 | 5988 ft | 295 kts | 150° |
| 2026-05-04 00:15 | 35.89970 | 128.95121 | 5999 ft | 278 kts | 187° |
| 2026-05-04 00:15 | 35.88063 | 128.95010 | 5906 ft | 269 kts | 197° |
| 2026-05-04 00:15 | 35.86257 | 128.94651 | 5839 ft | 256 kts | 202° |
| 2026-05-04 00:15 | 35.84577 | 128.94165 | 5781 ft | 244 kts | 206° |
| 2026-05-04 00:16 | 35.82989 | 128.93595 | 5714 ft | 230 kts | 210° |
| 2026-05-04 00:16 | 35.81518 | 128.92958 | 5642 ft | 218 kts | 214° |
| 2026-05-04 00:16 | 35.80165 | 128.92264 | 5399 ft | 209 kts | 218° |
| 2026-05-04 00:16 | 35.78857 | 128.91480 | 5022 ft | 207 kts | 222° |
| 2026-05-04 00:17 | 35.77866 | 128.90376 | 4587 ft | 180 kts | 258° |
| 2026-05-04 00:17 | 35.77870 | 128.88989 | 4304 ft | 158 kts | 295° |
| 2026-05-04 00:17 | 35.78219 | 128.87695 | 4070 ft | 157 kts | 290° |
| 2026-05-04 00:17 | 35.78584 | 128.86407 | 3831 ft | 160 kts | 294° |
| 2026-05-04 00:18 | 35.79061 | 128.85143 | 3629 ft | 165 kts | 298° |
| 2026-05-04 00:18 | 35.79584 | 128.83869 | 3385 ft | 169 kts | 298° |
| 2026-05-04 00:18 | 35.80171 | 128.82624 | 3157 ft | 166 kts | 301° |
| 2026-05-04 00:18 | 35.80798 | 128.81427 | 2933 ft | 167 kts | 302° |
| 2026-05-04 00:19 | 35.81452 | 128.80222 | 2711 ft | 170 kts | 303° |
| 2026-05-04 00:19 | 35.82101 | 128.79039 | 2479 ft | 160 kts | 303° |
| 2026-05-04 00:19 | 35.82695 | 128.77961 | 2290 ft | 146 kts | 302° |
| 2026-05-04 00:19 | 35.83226 | 128.76967 | 2098 ft | 134 kts | 303° |
| 2026-05-04 00:20 | 35.83762 | 128.76008 | 1890 ft | 135 kts | 302° |
| 2026-05-04 00:20 | 35.84279 | 128.75075 | 1727 ft | 130 kts | 303° |
| 2026-05-04 00:20 | 35.84784 | 128.74158 | 1533 ft | 129 kts | 303° |
| 2026-05-04 00:20 | 35.85288 | 128.73242 | 1362 ft | 131 kts | 302° |
| 2026-05-04 00:21 | 35.85793 | 128.72320 | 1180 ft | 132 kts | 303° |
| 2026-05-04 00:21 | 35.86314 | 128.71381 | 980 ft | 134 kts | 304° |
| 2026-05-04 00:21 | 35.86823 | 128.70434 | 832 ft | 131 kts | 305° |
| 2026-05-04 00:21 | 35.87338 | 128.69504 | 598 ft | 132 kts | 306° |
| 2026-05-04 00:22 | 35.87861 | 128.68566 | 413 ft | 134 kts | 307° |
| 2026-05-04 00:22 | 35.88390 | 128.67610 | 241 ft | 134 kts | 305° |
| 2026-05-04 00:22 | 35.88904 | 128.66675 | 139 ft | 128 kts | 305° |
| 2026-05-04 00:22 | 35.89363 | 128.65851 | 128 ft | 99 kts | 304° |
| 2026-05-04 00:23 | 35.89667 | 128.65301 | 129 ft | 58 kts | 304° |
| 2026-05-04 00:23 | 35.89832 | 128.65004 | 133 ft | 34 kts | 304° |
| 2026-05-04 00:23 | 35.89955 | 128.64782 | 132 ft | 27 kts | 304° |
| 2026-05-04 00:23 | 35.90014 | 128.64638 | 131 ft | 16 kts | 274° |
| 2026-05-04 00:24 | 35.89959 | 128.64532 | 131 ft | 15 kts | 246° |
| 2026-05-04 00:24 | 35.89989 | 128.64416 | 131 ft | 14 kts | 304° |
| 2026-05-04 00:24 | 35.90045 | 128.64316 | 131 ft | 14 kts | 304° |
| 2026-05-04 00:24 | 35.90098 | 128.64220 | 131 ft | 13 kts | 304° |
| 2026-05-04 00:25 | 35.90147 | 128.64128 | 131 ft | 13 kts | 299° |
| 2026-05-04 00:25 | 35.90138 | 128.64029 | 131 ft | 12 kts | 226° |
| 2026-05-04 00:25 | 35.90081 | 128.63956 | 131 ft | 10 kts | 258° |
| 2026-05-04 00:25 | 35.90069 | 128.63896 | 131 ft | 7 kts | 220° |
| 2026-05-04 00:26 | 35.90047 | 128.63878 | 131 ft | 0 kts | 212° |